sensor_id;sensor_type;location;lat;lon;timestamp;P1;durP1;ratioP1;P2;durP2;ratioP2
3307;SDS011;1666;48.898;9.182;2023-06-04T00:02:22;8.18;;;4.93;;
3307;SDS011;1666;48.898;9.182;2023-06-04T00:04:52;6.80;;;4.82;;
3307;SDS011;1666;48.898;9.182;2023-06-04T00:07:22;8.57;;;4.25;;
3307;SDS011;1666;48.898;9.182;2023-06-04T00:09:52;7.57;;;4.20;;
3307;SDS011;1666;48.898;9.182;2023-06-04T00:12:22;5.82;;;4.22;;
3307;SDS011;1666;48.898;9.182;2023-06-04T00:14:55;10.50;;;4.85;;
3307;SDS011;1666;48.898;9.182;2023-06-04T00:17:25;6.85;;;4.63;;
3307;SDS011;1666;48.898;9.182;2023-06-04T00:19:55;6.00;;;4.78;;
3307;SDS011;1666;48.898;9.182;2023-06-04T00:22:25;5.80;;;4.80;;
3307;SDS011;1666;48.898;9.182;2023-06-04T00:24:55;5.50;;;4.47;;
3307;SDS011;1666;48.898;9.182;2023-06-04T00:27:25;8.30;;;4.70;;
3307;SDS011;1666;48.898;9.182;2023-06-04T00:29:57;9.60;;;4.85;;
3307;SDS011;1666;48.898;9.182;2023-06-04T00:32:27;6.15;;;4.53;;
3307;SDS011;1666;48.898;9.182;2023-06-04T00:34:57;6.47;;;4.40;;
3307;SDS011;1666;48.898;9.182;2023-06-04T00:37:27;8.30;;;4.57;;
3307;SDS011;1666;48.898;9.182;2023-06-04T00:39:58;6.68;;;4.65;;
3307;SDS011;1666;48.898;9.182;2023-06-04T00:42:29;7.22;;;4.00;;
3307;SDS011;1666;48.898;9.182;2023-06-04T00:45:01;5.60;;;4.18;;
3307;SDS011;1666;48.898;9.182;2023-06-04T00:47:34;6.68;;;4.38;;
3307;SDS011;1666;48.898;9.182;2023-06-04T00:50:05;7.90;;;4.18;;
3307;SDS011;1666;48.898;9.182;2023-06-04T00:52:37;9.77;;;4.05;;
3307;SDS011;1666;48.898;9.182;2023-06-04T00:55:07;5.15;;;3.65;;
3307;SDS011;1666;48.898;9.182;2023-06-04T00:57:38;6.22;;;4.35;;
3307;SDS011;1666;48.898;9.182;2023-06-04T01:00:11;5.28;;;3.88;;
3307;SDS011;1666;48.898;9.182;2023-06-04T01:02:42;6.10;;;3.88;;
3307;SDS011;1666;48.898;9.182;2023-06-04T01:05:19;6.55;;;3.67;;
3307;SDS011;1666;48.898;9.182;2023-06-04T01:07:57;5.10;;;3.20;;
3307;SDS011;1666;48.898;9.182;2023-06-04T01:10:28;7.55;;;4.10;;
3307;SDS011;1666;48.898;9.182;2023-06-04T01:12:58;4.88;;;3.28;;
3307;SDS011;1666;48.898;9.182;2023-06-04T01:15:30;5.72;;;3.30;;
3307;SDS011;1666;48.898;9.182;2023-06-04T01:18:00;5.90;;;3.55;;
3307;SDS011;1666;48.898;9.182;2023-06-04T01:20:34;4.95;;;3.60;;
3307;SDS011;1666;48.898;9.182;2023-06-04T01:23:25;6.22;;;3.60;;
3307;SDS011;1666;48.898;9.182;2023-06-04T01:26:03;7.32;;;3.35;;
3307;SDS011;1666;48.898;9.182;2023-06-04T01:28:34;4.47;;;3.00;;
3307;SDS011;1666;48.898;9.182;2023-06-04T01:31:07;6.43;;;3.63;;
3307;SDS011;1666;48.898;9.182;2023-06-04T01:36:08;6.50;;;2.95;;
3307;SDS011;1666;48.898;9.182;2023-06-04T01:38:39;6.72;;;3.20;;
3307;SDS011;1666;48.898;9.182;2023-06-04T01:41:09;6.53;;;3.70;;
3307;SDS011;1666;48.898;9.182;2023-06-04T01:43:39;6.07;;;3.63;;
3307;SDS011;1666;48.898;9.182;2023-06-04T01:46:11;3.90;;;3.28;;
3307;SDS011;1666;48.898;9.182;2023-06-04T01:48:41;6.35;;;3.60;;
3307;SDS011;1666;48.898;9.182;2023-06-04T01:51:15;5.50;;;3.38;;
3307;SDS011;1666;48.898;9.182;2023-06-04T01:53:45;4.82;;;3.25;;
3307;SDS011;1666;48.898;9.182;2023-06-04T01:56:15;4.60;;;3.30;;
3307;SDS011;1666;48.898;9.182;2023-06-04T01:58:47;7.82;;;3.65;;
3307;SDS011;1666;48.898;9.182;2023-06-04T02:01:21;4.57;;;3.53;;
3307;SDS011;1666;48.898;9.182;2023-06-04T02:03:51;7.38;;;3.47;;
3307;SDS011;1666;48.898;9.182;2023-06-04T02:06:21;4.78;;;3.38;;
3307;SDS011;1666;48.898;9.182;2023-06-04T02:08:51;9.82;;;3.00;;
3307;SDS011;1666;48.898;9.182;2023-06-04T02:11:21;3.60;;;2.88;;
3307;SDS011;1666;48.898;9.182;2023-06-04T02:13:51;8.95;;;2.97;;
3307;SDS011;1666;48.898;9.182;2023-06-04T02:16:24;4.53;;;3.10;;
3307;SDS011;1666;48.898;9.182;2023-06-04T02:18:54;6.93;;;3.75;;
3307;SDS011;1666;48.898;9.182;2023-06-04T02:21:25;6.40;;;3.30;;
3307;SDS011;1666;48.898;9.182;2023-06-04T02:23:55;7.97;;;3.35;;
3307;SDS011;1666;48.898;9.182;2023-06-04T02:26:25;6.43;;;3.13;;
3307;SDS011;1666;48.898;9.182;2023-06-04T02:28:56;5.72;;;3.00;;
3307;SDS011;1666;48.898;9.182;2023-06-04T02:31:28;4.43;;;3.10;;
3307;SDS011;1666;48.898;9.182;2023-06-04T02:33:58;6.47;;;3.13;;
3307;SDS011;1666;48.898;9.182;2023-06-04T02:36:28;4.20;;;2.88;;
3307;SDS011;1666;48.898;9.182;2023-06-04T02:38:59;5.55;;;2.90;;
3307;SDS011;1666;48.898;9.182;2023-06-04T02:41:29;4.10;;;2.92;;
3307;SDS011;1666;48.898;9.182;2023-06-04T02:43:59;5.13;;;3.25;;
3307;SDS011;1666;48.898;9.182;2023-06-04T02:46:32;5.82;;;3.17;;
3307;SDS011;1666;48.898;9.182;2023-06-04T02:49:02;4.40;;;2.95;;
3307;SDS011;1666;48.898;9.182;2023-06-04T02:51:32;5.32;;;3.10;;
3307;SDS011;1666;48.898;9.182;2023-06-04T02:54:02;6.22;;;3.63;;
3307;SDS011;1666;48.898;9.182;2023-06-04T02:56:33;4.72;;;3.17;;
3307;SDS011;1666;48.898;9.182;2023-06-04T02:59:03;6.32;;;3.25;;
3307;SDS011;1666;48.898;9.182;2023-06-04T03:01:42;6.88;;;3.33;;
3307;SDS011;1666;48.898;9.182;2023-06-04T03:04:12;4.75;;;3.13;;
3307;SDS011;1666;48.898;9.182;2023-06-04T03:06:42;6.60;;;3.60;;
3307;SDS011;1666;48.898;9.182;2023-06-04T03:09:14;6.65;;;3.05;;
3307;SDS011;1666;48.898;9.182;2023-06-04T03:11:44;5.03;;;3.22;;
3307;SDS011;1666;48.898;9.182;2023-06-04T03:14:14;3.70;;;2.58;;
3307;SDS011;1666;48.898;9.182;2023-06-04T03:16:47;4.43;;;3.00;;
3307;SDS011;1666;48.898;9.182;2023-06-04T03:19:18;4.90;;;3.03;;
3307;SDS011;1666;48.898;9.182;2023-06-04T03:21:48;3.72;;;2.92;;
3307;SDS011;1666;48.898;9.182;2023-06-04T03:24:18;7.40;;;2.85;;
3307;SDS011;1666;48.898;9.182;2023-06-04T03:26:49;4.80;;;2.60;;
3307;SDS011;1666;48.898;9.182;2023-06-04T03:29:18;3.40;;;2.60;;
3307;SDS011;1666;48.898;9.182;2023-06-04T03:31:51;4.45;;;2.78;;
3307;SDS011;1666;48.898;9.182;2023-06-04T03:34:21;6.80;;;2.65;;
3307;SDS011;1666;48.898;9.182;2023-06-04T03:36:52;4.72;;;2.65;;
3307;SDS011;1666;48.898;9.182;2023-06-04T03:39:22;5.15;;;2.78;;
3307;SDS011;1666;48.898;9.182;2023-06-04T03:41:52;3.80;;;2.58;;
3307;SDS011;1666;48.898;9.182;2023-06-04T03:44:23;5.28;;;2.92;;
3307;SDS011;1666;48.898;9.182;2023-06-04T03:46:55;3.63;;;2.47;;
3307;SDS011;1666;48.898;9.182;2023-06-04T03:49:25;5.15;;;2.88;;
3307;SDS011;1666;48.898;9.182;2023-06-04T03:51:55;5.45;;;2.50;;
3307;SDS011;1666;48.898;9.182;2023-06-04T03:54:25;2.90;;;2.08;;
3307;SDS011;1666;48.898;9.182;2023-06-04T03:56:55;3.08;;;2.40;;
3307;SDS011;1666;48.898;9.182;2023-06-04T03:59:25;5.28;;;2.38;;
3307;SDS011;1666;48.898;9.182;2023-06-04T04:01:58;5.50;;;2.38;;
3307;SDS011;1666;48.898;9.182;2023-06-04T04:04:28;3.63;;;2.20;;
3307;SDS011;1666;48.898;9.182;2023-06-04T04:06:59;4.18;;;2.40;;
3307;SDS011;1666;48.898;9.182;2023-06-04T04:09:29;3.63;;;2.20;;
3307;SDS011;1666;48.898;9.182;2023-06-04T04:11:59;4.35;;;2.38;;
3307;SDS011;1666;48.898;9.182;2023-06-04T04:14:29;5.47;;;2.25;;
3307;SDS011;1666;48.898;9.182;2023-06-04T04:17:02;7.65;;;2.22;;
3307;SDS011;1666;48.898;9.182;2023-06-04T04:19:32;4.60;;;2.28;;
3307;SDS011;1666;48.898;9.182;2023-06-04T04:22:03;4.53;;;1.90;;
3307;SDS011;1666;48.898;9.182;2023-06-04T04:24:33;4.00;;;2.30;;
3307;SDS011;1666;48.898;9.182;2023-06-04T04:27:04;2.47;;;1.80;;
3307;SDS011;1666;48.898;9.182;2023-06-04T04:29:37;2.77;;;1.80;;
3307;SDS011;1666;48.898;9.182;2023-06-04T04:32:11;6.70;;;2.28;;
3307;SDS011;1666;48.898;9.182;2023-06-04T04:34:49;3.47;;;2.00;;
3307;SDS011;1666;48.898;9.182;2023-06-04T04:37:21;6.32;;;2.35;;
3307;SDS011;1666;48.898;9.182;2023-06-04T04:39:52;3.53;;;2.15;;
3307;SDS011;1666;48.898;9.182;2023-06-04T04:42:22;3.20;;;2.10;;
3307;SDS011;1666;48.898;9.182;2023-06-04T04:44:52;3.70;;;2.15;;
3307;SDS011;1666;48.898;9.182;2023-06-04T04:47:25;4.07;;;2.10;;
3307;SDS011;1666;48.898;9.182;2023-06-04T04:49:55;7.72;;;2.30;;
3307;SDS011;1666;48.898;9.182;2023-06-04T04:52:25;5.00;;;1.95;;
3307;SDS011;1666;48.898;9.182;2023-06-04T04:54:55;3.42;;;1.80;;
3307;SDS011;1666;48.898;9.182;2023-06-04T04:57:25;3.65;;;1.70;;
3307;SDS011;1666;48.898;9.182;2023-06-04T04:59:54;3.75;;;1.65;;
3307;SDS011;1666;48.898;9.182;2023-06-04T05:02:27;4.10;;;2.13;;
3307;SDS011;1666;48.898;9.182;2023-06-04T05:04:57;4.72;;;1.85;;
3307;SDS011;1666;48.898;9.182;2023-06-04T05:07:27;4.53;;;1.98;;
3307;SDS011;1666;48.898;9.182;2023-06-04T05:09:57;3.83;;;1.85;;
3307;SDS011;1666;48.898;9.182;2023-06-04T05:12:29;3.38;;;1.90;;
3307;SDS011;1666;48.898;9.182;2023-06-04T05:15:00;2.70;;;1.90;;
3307;SDS011;1666;48.898;9.182;2023-06-04T05:17:32;3.78;;;2.03;;
3307;SDS011;1666;48.898;9.182;2023-06-04T05:20:02;3.40;;;2.30;;
3307;SDS011;1666;48.898;9.182;2023-06-04T05:22:38;4.68;;;2.03;;
3307;SDS011;1666;48.898;9.182;2023-06-04T05:25:09;3.78;;;2.17;;
3307;SDS011;1666;48.898;9.182;2023-06-04T05:27:39;3.03;;;1.70;;
3307;SDS011;1666;48.898;9.182;2023-06-04T05:30:10;4.90;;;2.25;;
3307;SDS011;1666;48.898;9.182;2023-06-04T05:32:43;7.38;;;2.13;;
3307;SDS011;1666;48.898;9.182;2023-06-04T05:35:14;3.55;;;2.03;;
3307;SDS011;1666;48.898;9.182;2023-06-04T05:37:44;3.05;;;1.80;;
3307;SDS011;1666;48.898;9.182;2023-06-04T05:40:20;3.33;;;2.05;;
3307;SDS011;1666;48.898;9.182;2023-06-04T05:42:50;3.95;;;2.17;;
3307;SDS011;1666;48.898;9.182;2023-06-04T05:45:21;3.63;;;2.22;;
3307;SDS011;1666;48.898;9.182;2023-06-04T05:47:55;2.70;;;2.10;;
3307;SDS011;1666;48.898;9.182;2023-06-04T05:50:28;4.00;;;2.20;;
3307;SDS011;1666;48.898;9.182;2023-06-04T05:52:58;5.93;;;2.08;;
3307;SDS011;1666;48.898;9.182;2023-06-04T05:55:28;3.10;;;1.90;;
3307;SDS011;1666;48.898;9.182;2023-06-04T05:57:58;4.47;;;2.10;;
3307;SDS011;1666;48.898;9.182;2023-06-04T06:00:28;4.72;;;2.17;;
3307;SDS011;1666;48.898;9.182;2023-06-04T06:03:01;4.47;;;1.95;;
3307;SDS011;1666;48.898;9.182;2023-06-04T06:05:33;3.17;;;1.92;;
3307;SDS011;1666;48.898;9.182;2023-06-04T06:08:03;7.80;;;2.33;;
3307;SDS011;1666;48.898;9.182;2023-06-04T06:10:33;2.85;;;1.85;;
3307;SDS011;1666;48.898;9.182;2023-06-04T06:13:03;4.65;;;1.90;;
3307;SDS011;1666;48.898;9.182;2023-06-04T06:15:33;4.95;;;2.00;;
3307;SDS011;1666;48.898;9.182;2023-06-04T06:18:06;5.35;;;1.90;;
3307;SDS011;1666;48.898;9.182;2023-06-04T06:20:36;3.03;;;1.80;;
3307;SDS011;1666;48.898;9.182;2023-06-04T06:23:06;4.00;;;1.95;;
3307;SDS011;1666;48.898;9.182;2023-06-04T06:25:36;3.38;;;1.98;;
3307;SDS011;1666;48.898;9.182;2023-06-04T06:28:07;4.32;;;1.95;;
3307;SDS011;1666;48.898;9.182;2023-06-04T06:30:37;5.47;;;2.03;;
3307;SDS011;1666;48.898;9.182;2023-06-04T06:33:09;3.05;;;1.95;;
3307;SDS011;1666;48.898;9.182;2023-06-04T06:35:39;3.60;;;2.17;;
3307;SDS011;1666;48.898;9.182;2023-06-04T06:38:13;6.00;;;2.10;;
3307;SDS011;1666;48.898;9.182;2023-06-04T06:40:44;2.83;;;2.00;;
3307;SDS011;1666;48.898;9.182;2023-06-04T06:43:14;4.75;;;2.03;;
3307;SDS011;1666;48.898;9.182;2023-06-04T06:45:44;7.85;;;2.10;;
3307;SDS011;1666;48.898;9.182;2023-06-04T06:48:17;5.00;;;1.67;;
3307;SDS011;1666;48.898;9.182;2023-06-04T06:50:47;3.78;;;1.90;;
3307;SDS011;1666;48.898;9.182;2023-06-04T06:53:17;3.08;;;1.80;;
3307;SDS011;1666;48.898;9.182;2023-06-04T06:55:47;2.95;;;1.88;;
3307;SDS011;1666;48.898;9.182;2023-06-04T06:58:17;3.45;;;1.70;;
3307;SDS011;1666;48.898;9.182;2023-06-04T07:00:47;3.80;;;1.88;;
3307;SDS011;1666;48.898;9.182;2023-06-04T07:03:19;6.05;;;1.80;;
3307;SDS011;1666;48.898;9.182;2023-06-04T07:05:49;2.70;;;1.70;;
3307;SDS011;1666;48.898;9.182;2023-06-04T07:08:19;3.97;;;1.85;;
3307;SDS011;1666;48.898;9.182;2023-06-04T07:10:49;5.05;;;2.15;;
3307;SDS011;1666;48.898;9.182;2023-06-04T07:13:19;5.82;;;1.73;;
3307;SDS011;1666;48.898;9.182;2023-06-04T07:15:49;6.53;;;1.83;;
3307;SDS011;1666;48.898;9.182;2023-06-04T07:18:22;2.88;;;1.85;;
3307;SDS011;1666;48.898;9.182;2023-06-04T07:20:52;5.07;;;1.75;;
3307;SDS011;1666;48.898;9.182;2023-06-04T07:23:23;2.97;;;1.73;;
3307;SDS011;1666;48.898;9.182;2023-06-04T07:25:53;5.93;;;1.70;;
3307;SDS011;1666;48.898;9.182;2023-06-04T07:28:24;4.22;;;1.88;;
3307;SDS011;1666;48.898;9.182;2023-06-04T07:30:54;3.38;;;1.80;;
3307;SDS011;1666;48.898;9.182;2023-06-04T07:33:27;3.63;;;1.70;;
3307;SDS011;1666;48.898;9.182;2023-06-04T07:35:57;5.78;;;2.00;;
3307;SDS011;1666;48.898;9.182;2023-06-04T07:38:27;3.17;;;2.03;;
3307;SDS011;1666;48.898;9.182;2023-06-04T07:40:58;4.60;;;1.98;;
3307;SDS011;1666;48.898;9.182;2023-06-04T07:43:27;3.38;;;1.90;;
3307;SDS011;1666;48.898;9.182;2023-06-04T07:45:57;5.13;;;1.92;;
3307;SDS011;1666;48.898;9.182;2023-06-04T07:48:30;4.32;;;2.25;;
3307;SDS011;1666;48.898;9.182;2023-06-04T07:51:00;4.15;;;1.88;;
3307;SDS011;1666;48.898;9.182;2023-06-04T07:53:32;4.15;;;2.17;;
3307;SDS011;1666;48.898;9.182;2023-06-04T07:56:02;2.75;;;1.83;;
3307;SDS011;1666;48.898;9.182;2023-06-04T07:58:32;2.63;;;1.85;;
3307;SDS011;1666;48.898;9.182;2023-06-04T08:01:02;5.25;;;2.05;;
3307;SDS011;1666;48.898;9.182;2023-06-04T08:03:36;3.13;;;2.15;;
3307;SDS011;1666;48.898;9.182;2023-06-04T08:08:37;3.95;;;2.20;;
3307;SDS011;1666;48.898;9.182;2023-06-04T08:11:08;3.70;;;2.30;;
3307;SDS011;1666;48.898;9.182;2023-06-04T08:13:39;2.40;;;1.83;;
3307;SDS011;1666;48.898;9.182;2023-06-04T08:16:09;2.92;;;1.90;;
3307;SDS011;1666;48.898;9.182;2023-06-04T08:19:02;4.43;;;2.25;;
3307;SDS011;1666;48.898;9.182;2023-06-04T08:21:41;4.90;;;2.13;;
3307;SDS011;1666;48.898;9.182;2023-06-04T08:24:21;2.30;;;1.90;;
3307;SDS011;1666;48.898;9.182;2023-06-04T08:27:11;3.92;;;2.33;;
3307;SDS011;1666;48.898;9.182;2023-06-04T08:29:52;3.35;;;2.10;;
3307;SDS011;1666;48.898;9.182;2023-06-04T08:32:42;6.03;;;1.90;;
3307;SDS011;1666;48.898;9.182;2023-06-04T08:35:20;4.22;;;2.10;;
3307;SDS011;1666;48.898;9.182;2023-06-04T08:37:50;5.65;;;2.55;;
3307;SDS011;1666;48.898;9.182;2023-06-04T08:40:20;3.70;;;2.00;;
3307;SDS011;1666;48.898;9.182;2023-06-04T08:42:50;3.05;;;2.15;;
3307;SDS011;1666;48.898;9.182;2023-06-04T08:45:24;3.85;;;2.40;;
3307;SDS011;1666;48.898;9.182;2023-06-04T08:47:55;2.92;;;1.90;;
3307;SDS011;1666;48.898;9.182;2023-06-04T08:50:29;3.92;;;2.03;;
3307;SDS011;1666;48.898;9.182;2023-06-04T08:52:59;3.45;;;2.35;;
3307;SDS011;1666;48.898;9.182;2023-06-04T08:55:29;4.75;;;2.17;;
3307;SDS011;1666;48.898;9.182;2023-06-04T08:57:59;3.13;;;2.30;;
3307;SDS011;1666;48.898;9.182;2023-06-04T09:00:30;4.85;;;2.65;;
3307;SDS011;1666;48.898;9.182;2023-06-04T09:03:00;4.10;;;2.20;;
3307;SDS011;1666;48.898;9.182;2023-06-04T09:05:35;4.03;;;2.05;;
3307;SDS011;1666;48.898;9.182;2023-06-04T09:08:06;3.67;;;2.22;;
3307;SDS011;1666;48.898;9.182;2023-06-04T09:10:40;4.43;;;2.15;;
3307;SDS011;1666;48.898;9.182;2023-06-04T09:13:11;7.32;;;2.25;;
3307;SDS011;1666;48.898;9.182;2023-06-04T09:15:42;3.65;;;2.28;;
3307;SDS011;1666;48.898;9.182;2023-06-04T09:18:12;6.50;;;2.53;;
3307;SDS011;1666;48.898;9.182;2023-06-04T09:20:45;3.95;;;2.20;;
3307;SDS011;1666;48.898;9.182;2023-06-04T09:23:15;3.80;;;2.22;;
3307;SDS011;1666;48.898;9.182;2023-06-04T09:25:45;5.22;;;2.17;;
3307;SDS011;1666;48.898;9.182;2023-06-04T09:28:15;4.00;;;2.28;;
3307;SDS011;1666;48.898;9.182;2023-06-04T09:30:50;4.97;;;2.10;;
3307;SDS011;1666;48.898;9.182;2023-06-04T09:33:20;4.80;;;2.20;;
3307;SDS011;1666;48.898;9.182;2023-06-04T09:35:56;4.70;;;2.20;;
3307;SDS011;1666;48.898;9.182;2023-06-04T09:38:32;2.67;;;2.13;;
3307;SDS011;1666;48.898;9.182;2023-06-04T09:41:03;2.97;;;1.88;;
3307;SDS011;1666;48.898;9.182;2023-06-04T09:43:34;2.50;;;2.03;;
3307;SDS011;1666;48.898;9.182;2023-06-04T09:46:10;2.75;;;2.10;;
3307;SDS011;1666;48.898;9.182;2023-06-04T09:48:41;3.88;;;2.10;;
3307;SDS011;1666;48.898;9.182;2023-06-04T09:51:15;5.30;;;2.42;;
3307;SDS011;1666;48.898;9.182;2023-06-04T09:53:53;3.40;;;2.25;;
3307;SDS011;1666;48.898;9.182;2023-06-04T09:56:24;5.30;;;2.40;;
3307;SDS011;1666;48.898;9.182;2023-06-04T09:58:56;5.18;;;2.20;;
3307;SDS011;1666;48.898;9.182;2023-06-04T10:01:28;3.67;;;2.25;;
3307;SDS011;1666;48.898;9.182;2023-06-04T10:04:03;6.38;;;2.45;;
3307;SDS011;1666;48.898;9.182;2023-06-04T10:06:39;3.67;;;2.40;;
3307;SDS011;1666;48.898;9.182;2023-06-04T10:09:10;4.22;;;2.33;;
3307;SDS011;1666;48.898;9.182;2023-06-04T10:11:44;4.35;;;2.42;;
3307;SDS011;1666;48.898;9.182;2023-06-04T10:14:19;2.92;;;2.17;;
3307;SDS011;1666;48.898;9.182;2023-06-04T10:16:51;4.88;;;2.20;;
3307;SDS011;1666;48.898;9.182;2023-06-04T10:19:23;5.82;;;2.45;;
3307;SDS011;1666;48.898;9.182;2023-06-04T10:21:56;4.32;;;2.60;;
3307;SDS011;1666;48.898;9.182;2023-06-04T10:24:26;3.10;;;2.10;;
3307;SDS011;1666;48.898;9.182;2023-06-04T10:26:57;3.25;;;2.25;;
3307;SDS011;1666;48.898;9.182;2023-06-04T10:29:28;4.10;;;2.00;;
3307;SDS011;1666;48.898;9.182;2023-06-04T10:31:59;2.58;;;2.08;;
3307;SDS011;1666;48.898;9.182;2023-06-04T10:34:29;4.15;;;2.08;;
3307;SDS011;1666;48.898;9.182;2023-06-04T10:37:03;3.25;;;2.20;;
3307;SDS011;1666;48.898;9.182;2023-06-04T10:39:33;6.90;;;2.53;;
3307;SDS011;1666;48.898;9.182;2023-06-04T10:42:03;5.20;;;2.60;;
3307;SDS011;1666;48.898;9.182;2023-06-04T10:44:46;4.28;;;2.38;;
3307;SDS011;1666;48.898;9.182;2023-06-04T10:47:20;6.35;;;2.60;;
3307;SDS011;1666;48.898;9.182;2023-06-04T10:49:51;3.67;;;2.40;;
3307;SDS011;1666;48.898;9.182;2023-06-04T10:52:24;3.67;;;2.55;;
3307;SDS011;1666;48.898;9.182;2023-06-04T10:55:02;5.00;;;2.35;;
3307;SDS011;1666;48.898;9.182;2023-06-04T10:57:33;3.47;;;2.47;;
3307;SDS011;1666;48.898;9.182;2023-06-04T11:00:04;3.30;;;2.58;;
3307;SDS011;1666;48.898;9.182;2023-06-04T11:02:36;5.43;;;2.67;;
3307;SDS011;1666;48.898;9.182;2023-06-04T11:05:18;4.60;;;2.83;;
3307;SDS011;1666;48.898;9.182;2023-06-04T11:07:51;3.90;;;2.63;;
3307;SDS011;1666;48.898;9.182;2023-06-04T11:10:29;7.10;;;2.95;;
3307;SDS011;1666;48.898;9.182;2023-06-04T11:13:01;7.00;;;2.90;;
3307;SDS011;1666;48.898;9.182;2023-06-04T11:15:39;6.20;;;3.42;;
3307;SDS011;1666;48.898;9.182;2023-06-04T11:18:21;4.50;;;2.63;;
3307;SDS011;1666;48.898;9.182;2023-06-04T11:20:58;6.65;;;2.90;;
3307;SDS011;1666;48.898;9.182;2023-06-04T11:23:30;6.80;;;3.53;;
3307;SDS011;1666;48.898;9.182;2023-06-04T11:26:02;5.70;;;2.70;;
3307;SDS011;1666;48.898;9.182;2023-06-04T11:28:32;4.10;;;3.15;;
3307;SDS011;1666;48.898;9.182;2023-06-04T11:31:02;6.50;;;3.13;;
3307;SDS011;1666;48.898;9.182;2023-06-04T11:33:43;4.57;;;2.78;;
3307;SDS011;1666;48.898;9.182;2023-06-04T11:36:23;3.03;;;2.47;;
3307;SDS011;1666;48.898;9.182;2023-06-04T11:38:55;4.00;;;2.72;;
3307;SDS011;1666;48.898;9.182;2023-06-04T11:41:26;4.45;;;2.83;;
3307;SDS011;1666;48.898;9.182;2023-06-04T11:43:57;3.38;;;2.38;;
3307;SDS011;1666;48.898;9.182;2023-06-04T11:46:34;4.43;;;2.20;;
3307;SDS011;1666;48.898;9.182;2023-06-04T11:49:07;3.00;;;2.20;;
3307;SDS011;1666;48.898;9.182;2023-06-04T11:51:44;4.72;;;2.60;;
3307;SDS011;1666;48.898;9.182;2023-06-04T11:54:15;2.97;;;2.53;;
3307;SDS011;1666;48.898;9.182;2023-06-04T11:56:46;5.30;;;2.45;;
3307;SDS011;1666;48.898;9.182;2023-06-04T11:59:18;3.50;;;2.45;;
3307;SDS011;1666;48.898;9.182;2023-06-04T12:01:49;3.13;;;2.25;;
3307;SDS011;1666;48.898;9.182;2023-06-04T12:04:23;5.53;;;2.28;;
3307;SDS011;1666;48.898;9.182;2023-06-04T12:06:53;5.82;;;2.60;;
3307;SDS011;1666;48.898;9.182;2023-06-04T12:09:26;6.68;;;2.78;;
3307;SDS011;1666;48.898;9.182;2023-06-04T12:12:01;4.22;;;2.20;;
3307;SDS011;1666;48.898;9.182;2023-06-04T12:14:33;4.25;;;2.72;;
3307;SDS011;1666;48.898;9.182;2023-06-04T12:17:06;4.90;;;2.78;;
3307;SDS011;1666;48.898;9.182;2023-06-04T12:19:47;4.63;;;3.25;;
3307;SDS011;1666;48.898;9.182;2023-06-04T12:22:18;4.50;;;2.58;;
3307;SDS011;1666;48.898;9.182;2023-06-04T12:24:49;3.60;;;2.47;;
3307;SDS011;1666;48.898;9.182;2023-06-04T12:27:23;4.63;;;2.30;;
3307;SDS011;1666;48.898;9.182;2023-06-04T12:29:54;2.92;;;2.03;;
3307;SDS011;1666;48.898;9.182;2023-06-04T12:32:26;3.75;;;2.40;;
3307;SDS011;1666;48.898;9.182;2023-06-04T12:34:58;2.85;;;2.33;;
3307;SDS011;1666;48.898;9.182;2023-06-04T12:37:29;3.70;;;2.40;;
3307;SDS011;1666;48.898;9.182;2023-06-04T12:39:59;5.70;;;2.60;;
3307;SDS011;1666;48.898;9.182;2023-06-04T12:42:30;4.70;;;2.72;;
3307;SDS011;1666;48.898;9.182;2023-06-04T12:45:00;6.15;;;2.58;;
3307;SDS011;1666;48.898;9.182;2023-06-04T12:47:30;7.40;;;2.25;;
3307;SDS011;1666;48.898;9.182;2023-06-04T12:50:03;5.78;;;2.25;;
3307;SDS011;1666;48.898;9.182;2023-06-04T12:52:34;6.28;;;2.20;;
3307;SDS011;1666;48.898;9.182;2023-06-04T12:55:04;3.42;;;2.67;;
3307;SDS011;1666;48.898;9.182;2023-06-04T12:57:35;4.40;;;2.40;;
3307;SDS011;1666;48.898;9.182;2023-06-04T13:00:06;3.67;;;2.53;;
3307;SDS011;1666;48.898;9.182;2023-06-04T13:02:37;5.57;;;2.60;;
3307;SDS011;1666;48.898;9.182;2023-06-04T13:05:10;3.75;;;2.60;;
3307;SDS011;1666;48.898;9.182;2023-06-04T13:07:40;4.25;;;2.22;;
3307;SDS011;1666;48.898;9.182;2023-06-04T13:10:09;4.90;;;2.35;;
3307;SDS011;1666;48.898;9.182;2023-06-04T13:12:39;5.90;;;2.78;;
3307;SDS011;1666;48.898;9.182;2023-06-04T13:15:10;5.30;;;2.35;;
3307;SDS011;1666;48.898;9.182;2023-06-04T13:17:40;3.78;;;2.42;;
3307;SDS011;1666;48.898;9.182;2023-06-04T13:20:12;4.88;;;2.67;;
3307;SDS011;1666;48.898;9.182;2023-06-04T13:22:42;3.60;;;2.53;;
3307;SDS011;1666;48.898;9.182;2023-06-04T13:25:13;5.40;;;2.60;;
3307;SDS011;1666;48.898;9.182;2023-06-04T13:27:43;5.22;;;2.78;;
3307;SDS011;1666;48.898;9.182;2023-06-04T13:30:14;5.95;;;2.45;;
3307;SDS011;1666;48.898;9.182;2023-06-04T13:32:44;5.15;;;2.72;;
3307;SDS011;1666;48.898;9.182;2023-06-04T13:35:16;4.32;;;2.55;;
3307;SDS011;1666;48.898;9.182;2023-06-04T13:37:46;4.45;;;2.70;;
3307;SDS011;1666;48.898;9.182;2023-06-04T13:40:17;3.33;;;2.50;;
3307;SDS011;1666;48.898;9.182;2023-06-04T13:42:47;5.57;;;3.40;;
3307;SDS011;1666;48.898;9.182;2023-06-04T13:45:17;3.90;;;2.67;;
3307;SDS011;1666;48.898;9.182;2023-06-04T13:47:47;4.75;;;2.70;;
3307;SDS011;1666;48.898;9.182;2023-06-04T13:50:23;5.03;;;3.00;;
3307;SDS011;1666;48.898;9.182;2023-06-04T13:52:53;5.25;;;2.90;;
3307;SDS011;1666;48.898;9.182;2023-06-04T13:55:23;3.40;;;2.53;;
3307;SDS011;1666;48.898;9.182;2023-06-04T13:57:53;3.83;;;2.78;;
3307;SDS011;1666;48.898;9.182;2023-06-04T14:00:23;4.07;;;2.60;;
3307;SDS011;1666;48.898;9.182;2023-06-04T14:02:53;6.20;;;2.40;;
3307;SDS011;1666;48.898;9.182;2023-06-04T14:05:26;2.92;;;2.25;;
3307;SDS011;1666;48.898;9.182;2023-06-04T14:07:56;4.45;;;2.38;;
3307;SDS011;1666;48.898;9.182;2023-06-04T14:10:26;3.22;;;2.63;;
3307;SDS011;1666;48.898;9.182;2023-06-04T14:12:56;4.47;;;2.72;;
3307;SDS011;1666;48.898;9.182;2023-06-04T14:15:28;2.80;;;2.33;;
3307;SDS011;1666;48.898;9.182;2023-06-04T14:17:58;3.65;;;2.00;;
3307;SDS011;1666;48.898;9.182;2023-06-04T14:20:31;4.30;;;2.38;;
3307;SDS011;1666;48.898;9.182;2023-06-04T14:23:01;4.80;;;2.40;;
3307;SDS011;1666;48.898;9.182;2023-06-04T14:25:31;4.63;;;2.53;;
3307;SDS011;1666;48.898;9.182;2023-06-04T14:28:03;3.90;;;2.30;;
3307;SDS011;1666;48.898;9.182;2023-06-04T14:30:33;4.05;;;2.55;;
3307;SDS011;1666;48.898;9.182;2023-06-04T14:33:03;2.83;;;2.20;;
3307;SDS011;1666;48.898;9.182;2023-06-04T14:35:35;4.05;;;2.00;;
3307;SDS011;1666;48.898;9.182;2023-06-04T14:38:10;3.80;;;2.53;;
3307;SDS011;1666;48.898;9.182;2023-06-04T14:40:40;4.45;;;2.35;;
3307;SDS011;1666;48.898;9.182;2023-06-04T14:43:10;4.05;;;2.65;;
3307;SDS011;1666;48.898;9.182;2023-06-04T14:45:41;3.08;;;2.28;;
3307;SDS011;1666;48.898;9.182;2023-06-04T14:48:14;2.80;;;2.03;;
3307;SDS011;1666;48.898;9.182;2023-06-04T14:50:47;3.22;;;2.10;;
3307;SDS011;1666;48.898;9.182;2023-06-04T14:53:19;2.97;;;2.03;;
3307;SDS011;1666;48.898;9.182;2023-06-04T14:55:49;3.00;;;2.20;;
3307;SDS011;1666;48.898;9.182;2023-06-04T14:58:20;4.22;;;2.08;;
3307;SDS011;1666;48.898;9.182;2023-06-04T15:00:50;3.42;;;2.00;;
3307;SDS011;1666;48.898;9.182;2023-06-04T15:03:27;4.03;;;1.80;;
3307;SDS011;1666;48.898;9.182;2023-06-04T15:06:00;2.92;;;2.33;;
3307;SDS011;1666;48.898;9.182;2023-06-04T15:08:45;4.95;;;2.10;;
3307;SDS011;1666;48.898;9.182;2023-06-04T15:11:15;6.25;;;2.35;;
3307;SDS011;1666;48.898;9.182;2023-06-04T15:13:45;4.45;;;2.35;;
3307;SDS011;1666;48.898;9.182;2023-06-04T15:16:15;8.98;;;2.55;;
3307;SDS011;1666;48.898;9.182;2023-06-04T15:18:45;4.07;;;1.95;;
3307;SDS011;1666;48.898;9.182;2023-06-04T15:21:18;3.08;;;2.08;;
3307;SDS011;1666;48.898;9.182;2023-06-04T15:23:48;1.95;;;1.67;;
3307;SDS011;1666;48.898;9.182;2023-06-04T15:26:18;3.35;;;1.90;;
3307;SDS011;1666;48.898;9.182;2023-06-04T15:28:50;7.95;;;2.00;;
3307;SDS011;1666;48.898;9.182;2023-06-04T15:31:20;5.57;;;2.20;;
3307;SDS011;1666;48.898;9.182;2023-06-04T15:33:50;5.05;;;2.10;;
3307;SDS011;1666;48.898;9.182;2023-06-04T15:36:23;3.45;;;1.80;;
3307;SDS011;1666;48.898;9.182;2023-06-04T15:38:53;3.70;;;1.75;;
3307;SDS011;1666;48.898;9.182;2023-06-04T15:41:23;4.47;;;1.80;;
3307;SDS011;1666;48.898;9.182;2023-06-04T15:43:53;4.38;;;2.22;;
3307;SDS011;1666;48.898;9.182;2023-06-04T15:46:23;3.00;;;1.77;;
3307;SDS011;1666;48.898;9.182;2023-06-04T15:48:53;2.15;;;1.60;;